sensor_id;sensor_type;location;lat;lon;timestamp;pressure;altitude;pressure_sealevel;temperature;humidity
60170;BME280;46042;49.444;6.862;2022-11-20T00:01:18;98173.38;;;5.34;100.00
60170;BME280;46042;49.444;6.862;2022-11-20T00:03:45;98171.75;;;5.31;100.00
60170;BME280;46042;49.444;6.862;2022-11-20T00:06:14;98160.78;;;5.24;100.00
60170;BME280;46042;49.444;6.862;2022-11-20T00:08:42;98162.06;;;5.33;100.00
60170;BME280;46042;49.444;6.862;2022-11-20T00:11:11;98162.84;;;5.35;100.00
60170;BME280;46042;49.444;6.862;2022-11-20T00:13:43;98165.97;;;5.42;100.00
60170;BME280;46042;49.444;6.862;2022-11-20T00:16:11;98168.75;;;5.39;100.00
60170;BME280;46042;49.444;6.862;2022-11-20T00:18:38;98168.00;;;5.37;100.00
60170;BME280;46042;49.444;6.862;2022-11-20T00:21:17;98164.63;;;5.35;100.00
60170;BME280;46042;49.444;6.862;2022-11-20T00:23:44;98171.69;;;5.33;100.00
60170;BME280;46042;49.444;6.862;2022-11-20T00:26:14;98160.56;;;5.29;100.00
60170;BME280;46042;49.444;6.862;2022-11-20T00:28:42;98168.22;;;5.32;100.00
60170;BME280;46042;49.444;6.862;2022-11-20T00:31:15;98166.53;;;5.31;100.00
60170;BME280;46042;49.444;6.862;2022-11-20T00:33:43;98169.84;;;5.35;100.00
60170;BME280;46042;49.444;6.862;2022-11-20T00:36:18;98169.09;;;5.33;100.00
60170;BME280;46042;49.444;6.862;2022-11-20T00:38:45;98169.16;;;5.31;100.00
60170;BME280;46042;49.444;6.862;2022-11-20T00:41:15;98172.63;;;5.32;100.00
60170;BME280;46042;49.444;6.862;2022-11-20T00:43:42;98168.31;;;5.31;100.00
60170;BME280;46042;49.444;6.862;2022-11-20T00:46:13;98169.16;;;5.31;100.00
60170;BME280;46042;49.444;6.862;2022-11-20T00:48:40;98169.31;;;5.28;100.00
60170;BME280;46042;49.444;6.862;2022-11-20T00:51:07;98162.31;;;5.29;100.00
60170;BME280;46042;49.444;6.862;2022-11-20T00:53:34;98165.09;;;5.25;100.00
60170;BME280;46042;49.444;6.862;2022-11-20T00:56:03;98165.94;;;5.26;100.00
60170;BME280;46042;49.444;6.862;2022-11-20T00:58:33;98166.00;;;5.24;100.00
60170;BME280;46042;49.444;6.862;2022-11-20T01:01:12;98174.53;;;5.28;100.00
60170;BME280;46042;49.444;6.862;2022-11-20T01:03:41;98170.94;;;5.31;100.00
60170;BME280;46042;49.444;6.862;2022-11-20T01:06:24;98171.06;;;5.27;100.00
60170;BME280;46042;49.444;6.862;2022-11-20T01:08:54;98165.94;;;5.26;100.00
60170;BME280;46042;49.444;6.862;2022-11-20T01:11:26;98170.06;;;5.30;100.00
60170;BME280;46042;49.444;6.862;2022-11-20T01:13:54;98171.00;;;5.29;100.00
60170;BME280;46042;49.444;6.862;2022-11-20T01:16:22;98167.78;;;5.24;100.00
60170;BME280;46042;49.444;6.862;2022-11-20T01:18:51;98172.75;;;5.29;100.00
60170;BME280;46042;49.444;6.862;2022-11-20T01:21:23;98168.16;;;5.34;100.00
60170;BME280;46042;49.444;6.862;2022-11-20T01:23:51;98168.16;;;5.34;100.00
60170;BME280;46042;49.444;6.862;2022-11-20T01:26:23;98164.63;;;5.35;100.00
60170;BME280;46042;49.444;6.862;2022-11-20T01:28:51;98171.59;;;5.34;100.00
60170;BME280;46042;49.444;6.862;2022-11-20T01:31:19;98174.31;;;5.33;100.00
60170;BME280;46042;49.444;6.862;2022-11-20T01:33:47;98172.44;;;5.35;100.00
60170;BME280;46042;49.444;6.862;2022-11-20T01:36:15;98174.03;;;5.37;100.00
60170;BME280;46042;49.444;6.862;2022-11-20T01:38:42;98171.53;;;5.36;100.00
60170;BME280;46042;49.444;6.862;2022-11-20T01:41:10;98178.50;;;5.35;100.00
60170;BME280;46042;49.444;6.862;2022-11-20T01:43:37;98170.75;;;5.34;100.00
60170;BME280;46042;49.444;6.862;2022-11-20T01:46:15;98169.66;;;5.38;100.00
60170;BME280;46042;49.444;6.862;2022-11-20T01:51:23;98169.59;;;5.39;100.00
60170;BME280;46042;49.444;6.862;2022-11-20T01:53:54;98173.81;;;5.42;100.00
60170;BME280;46042;49.444;6.862;2022-11-20T01:56:22;98171.28;;;5.40;100.00
60170;BME280;46042;49.444;6.862;2022-11-20T01:58:52;98169.44;;;5.43;100.00
60170;BME280;46042;49.444;6.862;2022-11-20T02:01:20;98166.72;;;5.44;100.00
60170;BME280;46042;49.444;6.862;2022-11-20T02:03:48;98169.44;;;5.43;100.00
60170;BME280;46042;49.444;6.862;2022-11-20T02:06:31;98170.38;;;5.41;100.00
60170;BME280;46042;49.444;6.862;2022-11-20T02:09:01;98170.59;;;5.37;100.00
60170;BME280;46042;49.444;6.862;2022-11-20T02:11:30;98163.16;;;5.29;100.00
60170;BME280;46042;49.444;6.862;2022-11-20T02:13:57;98170.00;;;5.32;100.00
60170;BME280;46042;49.444;6.862;2022-11-20T02:16:41;98164.78;;;5.32;100.00
60170;BME280;46042;49.444;6.862;2022-11-20T02:19:26;98163.94;;;5.31;100.00
60170;BME280;46042;49.444;6.862;2022-11-20T02:22:24;98161.25;;;5.33;100.00
60170;BME280;46042;49.444;6.862;2022-11-20T02:24:47;98166.47;;;5.33;100.00
60170;BME280;46042;49.444;6.862;2022-11-20T02:27:16;98156.69;;;5.36;100.00
60170;BME280;46042;49.444;6.862;2022-11-20T02:29:53;98160.97;;;5.37;100.00
60170;BME280;46042;49.444;6.862;2022-11-20T02:32:34;98157.72;;;5.34;100.00
60170;BME280;46042;49.444;6.862;2022-11-20T02:37:45;98158.69;;;5.31;100.00
60170;BME280;46042;49.444;6.862;2022-11-20T02:40:13;98158.00;;;5.27;100.00
60170;BME280;46042;49.444;6.862;2022-11-20T02:42:39;98157.78;;;5.32;100.00
60170;BME280;46042;49.444;6.862;2022-11-20T02:45:06;98155.16;;;5.32;100.00
60170;BME280;46042;49.444;6.862;2022-11-20T02:47:33;98154.34;;;5.32;100.00
60170;BME280;46042;49.444;6.862;2022-11-20T02:50:00;98149.88;;;5.34;100.00
60170;BME280;46042;49.444;6.862;2022-11-20T02:52:27;98154.22;;;5.33;100.00
60170;BME280;46042;49.444;6.862;2022-11-20T02:54:54;98149.94;;;5.32;100.00
60170;BME280;46042;49.444;6.862;2022-11-20T02:57:20;98150.78;;;5.33;100.00
60170;BME280;46042;49.444;6.862;2022-11-20T02:59:47;98148.25;;;5.31;100.00
60170;BME280;46042;49.444;6.862;2022-11-20T03:02:14;98150.78;;;5.33;100.00
60170;BME280;46042;49.444;6.862;2022-11-20T03:04:40;98148.19;;;5.33;100.00
60170;BME280;46042;49.444;6.862;2022-11-20T03:07:08;98146.63;;;5.29;100.00
60170;BME280;46042;49.444;6.862;2022-11-20T03:09:35;98146.56;;;5.30;100.00
60170;BME280;46042;49.444;6.862;2022-11-20T03:12:02;98145.22;;;5.23;100.00
60170;BME280;46042;49.444;6.862;2022-11-20T03:14:29;98140.81;;;5.23;100.00
60170;BME280;46042;49.444;6.862;2022-11-20T03:16:56;98138.28;;;5.22;100.00
60170;BME280;46042;49.444;6.862;2022-11-20T03:19:22;98141.91;;;5.19;100.00
60170;BME280;46042;49.444;6.862;2022-11-20T03:21:49;98142.59;;;5.23;100.00
60170;BME280;46042;49.444;6.862;2022-11-20T03:24:16;98138.44;;;5.19;100.00
60170;BME280;46042;49.444;6.862;2022-11-20T03:26:43;98141.16;;;5.17;100.00
60170;BME280;46042;49.444;6.862;2022-11-20T03:29:09;98147.88;;;5.21;100.00
60170;BME280;46042;49.444;6.862;2022-11-20T03:31:39;98135.94;;;5.17;100.00
60170;BME280;46042;49.444;6.862;2022-11-20T03:34:10;98139.31;;;5.19;100.00
60170;BME280;46042;49.444;6.862;2022-11-20T03:36:41;98137.28;;;5.24;100.00
60170;BME280;46042;49.444;6.862;2022-11-20T03:39:08;98140.88;;;5.22;100.00
60170;BME280;46042;49.444;6.862;2022-11-20T03:41:37;98140.59;;;5.28;100.00
60170;BME280;46042;49.444;6.862;2022-11-20T03:44:07;98143.66;;;5.19;100.00
60170;BME280;46042;49.444;6.862;2022-11-20T03:46:35;98139.38;;;5.18;100.00
60170;BME280;46042;49.444;6.862;2022-11-20T03:49:02;98141.50;;;5.27;100.00
60170;BME280;46042;49.444;6.862;2022-11-20T03:51:31;98127.81;;;5.22;100.00
60170;BME280;46042;49.444;6.862;2022-11-20T03:54:00;98132.91;;;5.25;100.00
60170;BME280;46042;49.444;6.862;2022-11-20T03:56:29;98137.28;;;5.24;100.00
60170;BME280;46042;49.444;6.862;2022-11-20T03:58:57;98135.53;;;5.25;100.00
60170;BME280;46042;49.444;6.862;2022-11-20T04:01:26;98139.59;;;5.31;100.00
60170;BME280;46042;49.444;6.862;2022-11-20T04:03:54;98130.97;;;5.29;100.00
60170;BME280;46042;49.444;6.862;2022-11-20T04:06:27;98131.06;;;5.27;100.00
60170;BME280;46042;49.444;6.862;2022-11-20T04:08:55;98137.22;;;5.26;100.00
60170;BME280;46042;49.444;6.862;2022-11-20T04:11:24;98127.69;;;5.25;100.00
60170;BME280;46042;49.444;6.862;2022-11-20T04:13:53;98131.75;;;5.31;100.00
60170;BME280;46042;49.444;6.862;2022-11-20T04:16:21;98125.84;;;5.27;100.00
60170;BME280;46042;49.444;6.862;2022-11-20T04:18:55;98126.25;;;5.19;100.00
60170;BME280;46042;49.444;6.862;2022-11-20T04:21:22;98129.28;;;5.27;100.00
60170;BME280;46042;49.444;6.862;2022-11-20T04:23:50;98128.44;;;5.27;100.00
60170;BME280;46042;49.444;6.862;2022-11-20T04:26:17;98129.28;;;5.27;100.00
60170;BME280;46042;49.444;6.862;2022-11-20T04:28:43;98131.91;;;5.27;100.00
60170;BME280;46042;49.444;6.862;2022-11-20T04:31:12;98127.53;;;5.28;100.00
60170;BME280;46042;49.444;6.862;2022-11-20T04:33:40;98129.69;;;5.20;100.00
60170;BME280;46042;49.444;6.862;2022-11-20T04:36:16;98125.38;;;5.19;100.00
60170;BME280;46042;49.444;6.862;2022-11-20T04:38:44;98133.84;;;5.24;100.00
60170;BME280;46042;49.444;6.862;2022-11-20T04:41:17;98138.22;;;5.23;100.00
60170;BME280;46042;49.444;6.862;2022-11-20T04:43:48;98137.38;;;5.23;100.00
60170;BME280;46042;49.444;6.862;2022-11-20T04:46:19;98134.66;;;5.24;100.00
60170;BME280;46042;49.444;6.862;2022-11-20T04:48:46;98139.06;;;5.24;100.00
60170;BME280;46042;49.444;6.862;2022-11-20T04:51:13;98131.63;;;5.16;100.00
60170;BME280;46042;49.444;6.862;2022-11-20T04:53:40;98129.03;;;5.16;100.00
60170;BME280;46042;49.444;6.862;2022-11-20T04:56:08;98127.16;;;5.18;100.00
60170;BME280;46042;49.444;6.862;2022-11-20T04:58:37;98133.22;;;5.19;100.00
60170;BME280;46042;49.444;6.862;2022-11-20T05:01:06;98128.00;;;5.19;100.00
60170;BME280;46042;49.444;6.862;2022-11-20T05:03:33;98128.53;;;5.25;100.00
60170;BME280;46042;49.444;6.862;2022-11-20T05:06:07;98129.22;;;5.29;100.00
60170;BME280;46042;49.444;6.862;2022-11-20T05:08:34;98131.91;;;5.27;100.00
60170;BME280;46042;49.444;6.862;2022-11-20T05:11:03;98128.34;;;5.29;100.00
60170;BME280;46042;49.444;6.862;2022-11-20T05:13:30;98132.91;;;5.25;100.00
60170;BME280;46042;49.444;6.862;2022-11-20T05:16:07;98131.13;;;5.25;100.00
60170;BME280;46042;49.444;6.862;2022-11-20T05:18:35;98122.31;;;5.28;100.00
60170;BME280;46042;49.444;6.862;2022-11-20T05:21:02;98120.84;;;5.22;100.00
60170;BME280;46042;49.444;6.862;2022-11-20T05:23:31;98121.72;;;5.23;100.00
60170;BME280;46042;49.444;6.862;2022-11-20T05:25:58;98122.47;;;5.25;100.00
60170;BME280;46042;49.444;6.862;2022-11-20T05:28:27;98123.28;;;5.25;100.00
60170;BME280;46042;49.444;6.862;2022-11-20T05:30:54;98128.13;;;5.33;100.00
60170;BME280;46042;49.444;6.862;2022-11-20T05:33:21;98130.56;;;5.36;100.00
60170;BME280;46042;49.444;6.862;2022-11-20T05:35:49;98136.66;;;5.37;100.00
60170;BME280;46042;49.444;6.862;2022-11-20T05:38:15;98133.19;;;5.36;100.00
60170;BME280;46042;49.444;6.862;2022-11-20T05:40:42;98129.81;;;5.34;100.00
60170;BME280;46042;49.444;6.862;2022-11-20T05:43:09;98134.84;;;5.37;100.00
60170;BME280;46042;49.444;6.862;2022-11-20T05:45:35;98132.09;;;5.40;100.00
60170;BME280;46042;49.444;6.862;2022-11-20T05:48:02;98133.78;;;5.41;100.00
60170;BME280;46042;49.444;6.862;2022-11-20T05:50:29;98137.06;;;5.45;100.00
60170;BME280;46042;49.444;6.862;2022-11-20T05:52:58;98136.13;;;5.46;100.00
60170;BME280;46042;49.444;6.862;2022-11-20T05:55:26;98135.31;;;5.46;100.00
60170;BME280;46042;49.444;6.862;2022-11-20T05:57:54;98139.03;;;5.41;100.00
60170;BME280;46042;49.444;6.862;2022-11-20T06:00:22;98139.03;;;5.41;100.00
60170;BME280;46042;49.444;6.862;2022-11-20T06:02:48;98142.38;;;5.44;100.00
60170;BME280;46042;49.444;6.862;2022-11-20T06:05:15;98138.91;;;5.43;100.00
60170;BME280;46042;49.444;6.862;2022-11-20T06:07:42;98139.09;;;5.40;100.00
60170;BME280;46042;49.444;6.862;2022-11-20T06:10:09;98138.41;;;5.36;100.00
60170;BME280;46042;49.444;6.862;2022-11-20T06:12:35;98136.81;;;5.34;100.00
60170;BME280;46042;49.444;6.862;2022-11-20T06:15:04;98134.97;;;5.36;100.00
60170;BME280;46042;49.444;6.862;2022-11-20T06:17:31;98138.56;;;5.33;100.00
60170;BME280;46042;49.444;6.862;2022-11-20T06:19:57;98136.06;;;5.32;100.00
60170;BME280;46042;49.444;6.862;2022-11-20T06:22:24;98135.19;;;5.31;100.00
60170;BME280;46042;49.444;6.862;2022-11-20T06:24:51;98135.19;;;5.31;100.00
60170;BME280;46042;49.444;6.862;2022-11-20T06:27:17;98143.88;;;5.32;100.00
60170;BME280;46042;49.444;6.862;2022-11-20T06:29:44;98137.03;;;5.29;100.00
60170;BME280;46042;49.444;6.862;2022-11-20T06:32:11;98143.19;;;5.28;100.00
60170;BME280;46042;49.444;6.862;2022-11-20T06:34:37;98143.97;;;5.30;100.00
60170;BME280;46042;49.444;6.862;2022-11-20T06:37:04;98146.63;;;5.29;100.00
60170;BME280;46042;49.444;6.862;2022-11-20T06:39:30;98137.13;;;5.27;100.00
60170;BME280;46042;49.444;6.862;2022-11-20T06:41:57;98143.25;;;5.26;100.00
60170;BME280;46042;49.444;6.862;2022-11-20T06:44:25;98146.72;;;5.27;100.00
60170;BME280;46042;49.444;6.862;2022-11-20T06:46:52;98142.44;;;5.26;100.00
60170;BME280;46042;49.444;6.862;2022-11-20T06:49:18;98152.19;;;5.22;100.00
60170;BME280;46042;49.444;6.862;2022-11-20T06:51:45;98150.50;;;5.21;100.00
60170;BME280;46042;49.444;6.862;2022-11-20T06:54:12;98146.44;;;5.16;100.00
60170;BME280;46042;49.444;6.862;2022-11-20T06:56:39;98150.91;;;5.13;100.00
60170;BME280;46042;49.444;6.862;2022-11-20T06:59:06;98156.88;;;5.16;100.00
60170;BME280;46042;49.444;6.862;2022-11-20T07:01:33;98153.28;;;5.18;100.00
60170;BME280;46042;49.444;6.862;2022-11-20T07:04:00;98163.56;;;5.21;100.00
60170;BME280;46042;49.444;6.862;2022-11-20T07:06:27;98163.50;;;5.23;100.00
60170;BME280;46042;49.444;6.862;2022-11-20T07:08:53;98163.41;;;5.24;100.00
60170;BME280;46042;49.444;6.862;2022-11-20T07:11:20;98166.09;;;5.23;100.00
60170;BME280;46042;49.444;6.862;2022-11-20T07:13:47;98172.84;;;5.27;100.00
60170;BME280;46042;49.444;6.862;2022-11-20T07:16:13;98170.13;;;5.29;100.00
60170;BME280;46042;49.444;6.862;2022-11-20T07:18:40;98174.19;;;5.34;100.00
60170;BME280;46042;49.444;6.862;2022-11-20T07:21:14;98181.81;;;5.39;100.00
60170;BME280;46042;49.444;6.862;2022-11-20T07:23:41;98180.88;;;5.40;100.00
60170;BME280;46042;49.444;6.862;2022-11-20T07:26:09;98183.56;;;5.38;100.00
60170;BME280;46042;49.444;6.862;2022-11-20T07:28:37;98187.97;;;5.38;100.00
60170;BME280;46042;49.444;6.862;2022-11-20T07:31:04;98184.41;;;5.39;100.00
60170;BME280;46042;49.444;6.862;2022-11-20T07:33:33;98188.56;;;5.43;100.00
60170;BME280;46042;49.444;6.862;2022-11-20T07:35:59;98196.38;;;5.43;100.00
60170;BME280;46042;49.444;6.862;2022-11-20T07:38:26;98193.78;;;5.43;100.00
60170;BME280;46042;49.444;6.862;2022-11-20T07:40:54;98199.00;;;5.43;100.00
60170;BME280;46042;49.444;6.862;2022-11-20T07:43:21;98198.25;;;5.41;100.00
60170;BME280;46042;49.444;6.862;2022-11-20T07:45:48;98198.06;;;5.44;100.00
60170;BME280;46042;49.444;6.862;2022-11-20T07:48:15;98206.00;;;5.43;100.00
60170;BME280;46042;49.444;6.862;2022-11-20T07:50:42;98205.09;;;5.44;100.00
60170;BME280;46042;49.444;6.862;2022-11-20T07:53:08;98213.91;;;5.41;100.00
60170;BME280;46042;49.444;6.862;2022-11-20T07:55:35;98203.47;;;5.41;100.00
60170;BME280;46042;49.444;6.862;2022-11-20T07:58:02;98212.22;;;5.40;100.00
60170;BME280;46042;49.444;6.862;2022-11-20T08:00:29;98211.31;;;5.41;100.00
60170;BME280;46042;49.444;6.862;2022-11-20T08:02:55;98213.09;;;5.40;100.00
60170;BME280;46042;49.444;6.862;2022-11-20T08:05:23;98213.00;;;5.42;100.00
60170;BME280;46042;49.444;6.862;2022-11-20T08:07:50;98211.41;;;5.39;100.00
60170;BME280;46042;49.444;6.862;2022-11-20T08:10:16;98216.53;;;5.41;100.00
60170;BME280;46042;49.444;6.862;2022-11-20T08:12:51;98218.38;;;5.39;100.00
60170;BME280;46042;49.444;6.862;2022-11-20T08:15:38;98221.75;;;5.41;100.00
60170;BME280;46042;49.444;6.862;2022-11-20T08:18:10;98222.69;;;5.40;100.00
60170;BME280;46042;49.444;6.862;2022-11-20T08:21:01;98223.44;;;5.42;100.00
60170;BME280;46042;49.444;6.862;2022-11-20T08:23:28;98224.19;;;5.44;100.00
60170;BME280;46042;49.444;6.862;2022-11-20T08:25:54;98227.75;;;5.43;100.00
60170;BME280;46042;49.444;6.862;2022-11-20T08:28:21;98233.97;;;5.40;100.00
60170;BME280;46042;49.444;6.862;2022-11-20T08:30:49;98235.75;;;5.40;100.00
60170;BME280;46042;49.444;6.862;2022-11-20T08:33:17;98229.69;;;5.39;100.00
60170;BME280;46042;49.444;6.862;2022-11-20T08:35:44;98232.19;;;5.41;100.00
60170;BME280;46042;49.444;6.862;2022-11-20T08:38:10;98228.91;;;5.37;100.00
60170;BME280;46042;49.444;6.862;2022-11-20T08:40:37;98239.28;;;5.39;100.00
60170;BME280;46042;49.444;6.862;2022-11-20T08:43:03;98236.81;;;5.36;100.00
60170;BME280;46042;49.444;6.862;2022-11-20T08:45:30;98239.50;;;5.34;100.00
60170;BME280;46042;49.444;6.862;2022-11-20T08:48:01;98239.34;;;5.37;100.00
60170;BME280;46042;49.444;6.862;2022-11-20T08:50:29;98243.50;;;5.41;100.00
60170;BME280;46042;49.444;6.862;2022-11-20T08:53:03;98246.78;;;5.45;100.00
60170;BME280;46042;49.444;6.862;2022-11-20T08:55:30;98244.72;;;5.52;100.00
60170;BME280;46042;49.444;6.862;2022-11-20T08:57:56;98245.22;;;5.59;100.00
60170;BME280;46042;49.444;6.862;2022-11-20T09:00:23;98245.94;;;5.62;100.00
60170;BME280;46042;49.444;6.862;2022-11-20T09:02:49;98243.91;;;5.67;100.00
60170;BME280;46042;49.444;6.862;2022-11-20T09:05:16;98241.22;;;5.69;100.00
60170;BME280;46042;49.444;6.862;2022-11-20T09:07:43;98245.28;;;5.75;100.00
60170;BME280;46042;49.444;6.862;2022-11-20T09:10:09;98243.34;;;5.78;100.00
60170;BME280;46042;49.444;6.862;2022-11-20T09:12:50;98248.25;;;5.84;100.00
60170;BME280;46042;49.444;6.862;2022-11-20T09:15:18;98247.06;;;5.90;100.00
60170;BME280;46042;49.444;6.862;2022-11-20T09:18:00;98258.31;;;5.92;100.00
60170;BME280;46042;49.444;6.862;2022-11-20T09:20:28;98250.31;;;5.95;100.00
60170;BME280;46042;49.444;6.862;2022-11-20T09:22:55;98254.84;;;5.92;100.00
60170;BME280;46042;49.444;6.862;2022-11-20T09:25:22;98253.31;;;5.88;100.00
60170;BME280;46042;49.444;6.862;2022-11-20T09:27:58;98259.78;;;5.80;100.00
60170;BME280;46042;49.444;6.862;2022-11-20T09:30:26;98259.31;;;5.90;100.00
60170;BME280;46042;49.444;6.862;2022-11-20T09:32:53;98261.47;;;5.81;100.00
60170;BME280;46042;49.444;6.862;2022-11-20T09:35:19;98258.56;;;5.88;100.00
60170;BME280;46042;49.444;6.862;2022-11-20T09:37:46;98251.31;;;5.93;100.00
60170;BME280;46042;49.444;6.862;2022-11-20T09:40:20;98259.38;;;5.88;100.00
60170;BME280;46042;49.444;6.862;2022-11-20T09:43:18;98264.88;;;5.83;100.00
60170;BME280;46042;49.444;6.862;2022-11-20T09:51:41;98264.78;;;5.85;100.00
60170;BME280;46042;49.444;6.862;2022-11-20T09:54:18;98258.25;;;5.76;100.00
60170;BME280;46042;49.444;6.862;2022-11-20T09:56:56;98259.56;;;5.85;100.00
60170;BME280;46042;49.444;6.862;2022-11-20T10:05:00;98251.53;;;5.72;100.00
60170;BME280;46042;49.444;6.862;2022-11-20T10:07:48;98248.69;;;5.93;100.00
60170;BME280;46042;49.444;6.862;2022-11-20T10:10:37;98252.16;;;5.93;100.00
60170;BME280;46042;49.444;6.862;2022-11-20T10:29:34;98238.91;;;5.96;100.00
60170;BME280;46042;49.444;6.862;2022-11-20T10:32:17;98244.47;;;6.08;100.00
60170;BME280;46042;49.444;6.862;2022-11-20T10:34:57;98239.22;;;6.08;100.00
60170;BME280;46042;49.444;6.862;2022-11-20T10:37:26;98240.22;;;6.21;100.00
60170;BME280;46042;49.444;6.862;2022-11-20T10:42:57;98251.53;;;5.88;100.00
60170;BME280;46042;49.444;6.862;2022-11-20T10:48:18;98230.69;;;6.04;100.00
60170;BME280;46042;49.444;6.862;2022-11-20T10:51:02;98237.09;;;6.15;100.00
60170;BME280;46042;49.444;6.862;2022-11-20T11:01:51;98238.97;;;6.29;100.00
60170;BME280;46042;49.444;6.862;2022-11-20T11:04:33;98232.47;;;6.36;100.00
60170;BME280;46042;49.444;6.862;2022-11-20T11:09:46;98221.47;;;6.61;100.00
60170;BME280;46042;49.444;6.862;2022-11-20T11:12:13;98217.31;;;6.73;100.00
60170;BME280;46042;49.444;6.862;2022-11-20T11:14:58;98216.25;;;6.61;100.00
60170;BME280;46042;49.444;6.862;2022-11-20T11:17:30;98211.44;;;6.69;100.00
60170;BME280;46042;49.444;6.862;2022-11-20T11:20:24;98205.59;;;6.64;100.00
60170;BME280;46042;49.444;6.862;2022-11-20T11:22:56;98206.94;;;6.72;100.00
60170;BME280;46042;49.444;6.862;2022-11-20T11:27:58;98188.63;;;6.55;100.00
60170;BME280;46042;49.444;6.862;2022-11-20T11:30:26;98189.34;;;6.43;100.00
60170;BME280;46042;49.444;6.862;2022-11-20T11:33:04;98186.31;;;6.51;100.00
60170;BME280;46042;49.444;6.862;2022-11-20T11:35:32;98178.13;;;6.25;100.00
60170;BME280;46042;49.444;6.862;2022-11-20T11:38:10;98167.53;;;6.59;100.00
60170;BME280;46042;49.444;6.862;2022-11-20T11:40:40;98172.00;;;6.73;100.00
60170;BME280;46042;49.444;6.862;2022-11-20T11:43:17;98172.94;;;7.31;100.00
60170;BME280;46042;49.444;6.862;2022-11-20T11:57:12;98167.97;;;7.70;100.00
60170;BME280;46042;49.444;6.862;2022-11-20T11:59:51;98160.19;;;7.83;98.03
60170;BME280;46042;49.444;6.862;2022-11-20T12:05:37;98152.34;;;7.10;100.00
60170;BME280;46042;49.444;6.862;2022-11-20T12:08:15;98141.50;;;7.17;100.00
60170;BME280;46042;49.444;6.862;2022-11-20T12:10:59;98138.69;;;7.20;100.00
60170;BME280;46042;49.444;6.862;2022-11-20T12:16:14;98140.34;;;7.06;98.78
60170;BME280;46042;49.444;6.862;2022-11-20T12:18:42;98140.34;;;7.06;100.00
60170;BME280;46042;49.444;6.862;2022-11-20T12:21:31;98135.88;;;7.23;100.00
60170;BME280;46042;49.444;6.862;2022-11-20T12:51:01;98108.56;;;6.67;100.00
60170;BME280;46042;49.444;6.862;2022-11-20T13:03:00;98095.25;;;6.42;100.00
60170;BME280;46042;49.444;6.862;2022-11-20T13:05:59;98098.44;;;6.47;100.00
60170;BME280;46042;49.444;6.862;2022-11-20T13:08:38;98087.88;;;6.48;100.00
60170;BME280;46042;49.444;6.862;2022-11-20T13:11:17;98085.25;;;6.48;100.00
60170;BME280;46042;49.444;6.862;2022-11-20T13:16:39;98070.94;;;6.39;100.00
60170;BME280;46042;49.444;6.862;2022-11-20T13:19:15;98061.91;;;6.45;100.00
60170;BME280;46042;49.444;6.862;2022-11-20T13:21:46;98051.78;;;6.39;100.00
60170;BME280;46042;49.444;6.862;2022-11-20T13:26:46;98042.34;;;6.36;100.00
60170;BME280;46042;49.444;6.862;2022-11-20T13:29:17;98046.53;;;6.39;100.00
60170;BME280;46042;49.444;6.862;2022-11-20T13:31:46;98038.44;;;6.44;100.00
60170;BME280;46042;49.444;6.862;2022-11-20T13:34:23;98036.47;;;6.47;100.00
60170;BME280;46042;49.444;6.862;2022-11-20T13:36:53;98036.06;;;6.39;100.00
60170;BME280;46042;49.444;6.862;2022-11-20T13:39:29;98039.13;;;6.31;100.00
60170;BME280;46042;49.444;6.862;2022-11-20T13:41:58;98027.94;;;6.29;100.00
60170;BME280;46042;49.444;6.862;2022-11-20T13:44:42;98020.50;;;6.37;100.00
60170;BME280;46042;49.444;6.862;2022-11-20T13:47:23;98028.06;;;6.42;100.00
60170;BME280;46042;49.444;6.862;2022-11-20T13:49:51;98018.25;;;6.46;100.00
60170;BME280;46042;49.444;6.862;2022-11-20T13:57:40;98031.03;;;6.36;100.00
60170;BME280;46042;49.444;6.862;2022-11-20T14:00:14;98025.41;;;6.28;98.51
60170;BME280;46042;49.444;6.862;2022-11-20T14:02:41;98012.97;;;6.31;99.01
60170;BME280;46042;49.444;6.862;2022-11-20T14:05:28;98020.19;;;6.28;98.61
60170;BME280;46042;49.444;6.862;2022-11-20T14:07:57;98008.88;;;6.27;100.00
60170;BME280;46042;49.444;6.862;2022-11-20T14:10:27;98007.25;;;6.24;98.72
60170;BME280;46042;49.444;6.862;2022-11-20T14:12:58;98008.63;;;6.16;100.00
60170;BME280;46042;49.444;6.862;2022-11-20T14:15:30;98008.63;;;6.16;100.00
60170;BME280;46042;49.444;6.862;2022-11-20T14:17:58;97998.47;;;6.11;98.21
60170;BME280;46042;49.444;6.862;2022-11-20T14:20:29;98003.53;;;6.14;99.15
60170;BME280;46042;49.444;6.862;2022-11-20T14:22:57;98003.59;;;6.12;100.00
60170;BME280;46042;49.444;6.862;2022-11-20T14:25:25;98004.63;;;6.10;98.90
60170;BME280;46042;49.444;6.862;2022-11-20T14:27:59;98003.03;;;6.07;99.18
60170;BME280;46042;49.444;6.862;2022-11-20T14:30:42;98005.72;;;6.06;99.35
60170;BME280;46042;49.444;6.862;2022-11-20T14:33:11;97994.50;;;6.04;100.00
60170;BME280;46042;49.444;6.862;2022-11-20T14:35:46;97998.72;;;6.06;100.00
60170;BME280;46042;49.444;6.862;2022-11-20T14:38:16;97996.44;;;6.00;99.19
60170;BME280;46042;49.444;6.862;2022-11-20T14:40:44;97996.38;;;6.02;100.00
60170;BME280;46042;49.444;6.862;2022-11-20T14:46:15;97988.88;;;5.95;100.00
60170;BME280;46042;49.444;6.862;2022-11-20T14:48:47;97985.66;;;5.90;100.00
60170;BME280;46042;49.444;6.862;2022-11-20T14:51:27;97984.06;;;5.88;100.00
60170;BME280;46042;49.444;6.862;2022-11-20T14:53:54;97979.38;;;5.78;100.00
60170;BME280;46042;49.444;6.862;2022-11-20T14:56:23;97974.13;;;5.78;100.00
60170;BME280;46042;49.444;6.862;2022-11-20T14:58:57;97975.00;;;5.79;100.00
60170;BME280;46042;49.444;6.862;2022-11-20T15:01:28;97969.09;;;5.75;100.00
60170;BME280;46042;49.444;6.862;2022-11-20T15:04:25;97970.38;;;5.68;100.00
60170;BME280;46042;49.444;6.862;2022-11-20T15:06:55;97963.47;;;5.67;100.00
60170;BME280;46042;49.444;6.862;2022-11-20T15:09:22;97953.09;;;5.65;100.00
60170;BME280;46042;49.444;6.862;2022-11-20T15:11:55;97949.63;;;5.65;100.00
60170;BME280;46042;49.444;6.862;2022-11-20T15:14:22;97950.47;;;5.65;100.00
60170;BME280;46042;49.444;6.862;2022-11-20T15:16:51;97942.06;;;5.60;100.00